createdAt,value
2018-10-02T00:02:28.293Z,93491.85
2018-10-02T00:17:33.312Z,93473.06
2018-10-02T00:32:37.132Z,93475.73
2018-10-02T00:47:40.918Z,93474.05
2018-10-02T01:02:44.715Z,93472.33
2018-10-02T01:17:48.487Z,93480.00
2018-10-02T01:32:52.317Z,93478.27
2018-10-02T01:47:56.373Z,93473.69
2018-10-02T02:03:00.355Z,93479.38
2018-10-02T02:18:04.938Z,93482.38
2018-10-02T02:33:08.728Z,93478.72
2018-10-02T02:48:18.047Z,93489.83
2018-10-02T03:03:22.243Z,93518.75
2018-10-02T03:18:26.334Z,93528.63
2018-10-02T03:33:30.155Z,93522.48
2018-10-02T03:48:34.291Z,93514.50
2018-10-02T04:03:38.111Z,93525.27
2018-10-02T04:18:42.209Z,93541.30
2018-10-02T04:33:46.875Z,93535.44
2018-10-02T04:48:52.399Z,93549.91
2018-10-02T05:03:56.195Z,93563.28
2018-10-02T05:19:00.447Z,93580.36
2018-10-02T05:34:04.625Z,93540.96
2018-10-02T05:49:08.797Z,93611.35
2018-10-02T06:04:12.873Z,93622.91
2018-10-02T06:19:17.034Z,93648.40
2018-10-02T06:34:21.304Z,93661.72
2018-10-02T06:49:25.392Z,93664.51
2018-10-02T07:04:29.455Z,93677.67
2018-10-02T07:19:33.707Z,93699.34
2018-10-02T07:34:39.303Z,93721.56
2018-10-02T07:49:43.435Z,93723.77
2018-10-02T08:04:47.639Z,93715.68
2018-10-02T08:19:51.964Z,93709.39
2018-10-02T08:34:56.157Z,93722.70
2018-10-02T08:50:00.315Z,93732.69
2018-10-02T09:05:04.412Z,93713.96
2018-10-02T09:20:08.594Z,93722.55
2018-10-02T09:35:18.807Z,93726.23
2018-10-02T09:50:23.037Z,93706.34
2018-10-02T10:05:27.307Z,93695.70
2018-10-02T10:20:31.555Z,93670.52
2018-10-02T10:35:35.675Z,93653.63
2018-10-02T10:50:39.880Z,93638.72
2018-10-02T11:05:44.074Z,93626.03
2018-10-02T11:20:48.373Z,93627.19
2018-10-02T11:35:52.539Z,93619.69
2018-10-02T11:50:56.717Z,93621.25
2018-10-02T12:06:00.827Z,93613.59
2018-10-02T12:21:05.310Z,93613.02
2018-10-02T12:36:10.481Z,93607.56
2018-10-02T12:51:14.875Z,93568.98
2018-10-02T13:06:19.169Z,93603.04
2018-10-02T13:21:23.367Z,93605.91
2018-10-02T13:36:27.574Z,93604.71
2018-10-02T13:51:31.919Z,93604.91
2018-10-02T14:06:36.166Z,93603.38
2018-10-02T14:21:40.408Z,93619.11
2018-10-02T14:36:44.782Z,93622.57
2018-10-02T14:51:48.909Z,93613.13
2018-10-02T15:06:53.080Z,93615.23
2018-10-02T15:21:57.262Z,93624.36
2018-10-02T15:37:01.359Z,93632.06
2018-10-02T15:52:05.708Z,93625.75
2018-10-02T16:07:10.125Z,93640.00
2018-10-02T16:22:14.363Z,93659.55
2018-10-02T16:37:18.209Z,93683.33
2018-10-02T16:52:22.024Z,93707.83
2018-10-02T17:07:26.094Z,93727.91
2018-10-02T17:22:29.980Z,93758.63
2018-10-02T17:37:33.871Z,93796.13
2018-10-02T17:52:37.746Z,93817.34
2018-10-02T18:07:41.615Z,93830.64
2018-10-02T18:22:45.561Z,93840.11
2018-10-02T18:37:49.432Z,93858.70
2018-10-02T18:52:54.077Z,93870.24
2018-10-02T19:07:57.957Z,93887.77
2018-10-02T19:23:01.873Z,93913.67
2018-10-02T19:38:10.755Z,93933.13
2018-10-02T19:53:14.638Z,93952.59
2018-10-02T20:08:18.520Z,93982.80
2018-10-02T20:23:22.440Z,93989.78
2018-10-02T20:38:26.334Z,94010.32
2018-10-02T20:53:30.136Z,94014.30
2018-10-02T21:08:34.012Z,94036.17
2018-10-02T21:23:37.843Z,94026.20
2018-10-02T21:38:41.700Z,94020.38
2018-10-02T21:53:45.650Z,94026.16
2018-10-02T22:08:49.472Z,94023.41
2018-10-02T22:23:53.343Z,94033.55
2018-10-02T22:38:57.181Z,94049.89
2018-10-02T22:54:01.008Z,94045.23
2018-10-02T23:09:07.114Z,94066.91
2018-10-02T23:24:10.912Z,94080.10
2018-10-02T23:39:14.700Z,94092.21
2018-10-02T23:54:18.533Z,94088.60
